sensor_id;sensor_type;location;lat;lon;timestamp;pressure;altitude;pressure_sealevel;temperature;humidity
80186;BME280;69904;52.122;5.422;2023-12-07T00:01:53;102033.13;;;0.90;81.25
80186;BME280;69904;52.122;5.422;2023-12-07T00:04:19;102034.09;;;0.89;81.20
80186;BME280;69904;52.122;5.422;2023-12-07T00:06:46;102035.28;;;0.85;81.34
80186;BME280;69904;52.122;5.422;2023-12-07T00:09:12;102038.22;;;0.80;81.55
80186;BME280;69904;52.122;5.422;2023-12-07T00:11:39;102028.34;;;0.82;81.26
80186;BME280;69904;52.122;5.422;2023-12-07T00:14:05;102028.75;;;0.76;81.22
80186;BME280;69904;52.122;5.422;2023-12-07T00:16:32;102035.25;;;0.72;81.10
80186;BME280;69904;52.122;5.422;2023-12-07T00:18:58;102037.81;;;0.74;81.28
80186;BME280;69904;52.122;5.422;2023-12-07T00:21:25;102035.25;;;0.72;81.02
80186;BME280;69904;52.122;5.422;2023-12-07T00:23:51;102039.72;;;0.72;81.03
80186;BME280;69904;52.122;5.422;2023-12-07T00:26:18;102027.28;;;0.72;81.08
80186;BME280;69904;52.122;5.422;2023-12-07T00:28:44;102024.84;;;0.69;81.10
80186;BME280;69904;52.122;5.422;2023-12-07T00:31:11;102025.78;;;0.68;81.23
80186;BME280;69904;52.122;5.422;2023-12-07T00:33:38;102013.78;;;0.63;81.16
80186;BME280;69904;52.122;5.422;2023-12-07T00:36:05;102006.66;;;0.63;81.10
80186;BME280;69904;52.122;5.422;2023-12-07T00:38:31;102016.44;;;0.63;81.17
80186;BME280;69904;52.122;5.422;2023-12-07T00:40:58;102013.78;;;0.63;81.37
80186;BME280;69904;52.122;5.422;2023-12-07T00:43:25;102015.47;;;0.64;81.40
80186;BME280;69904;52.122;5.422;2023-12-07T00:45:52;102014.50;;;0.65;81.51
80186;BME280;69904;52.122;5.422;2023-12-07T00:48:18;102014.50;;;0.65;81.46
80186;BME280;69904;52.122;5.422;2023-12-07T00:50:45;102019.94;;;0.63;81.29
80186;BME280;69904;52.122;5.422;2023-12-07T00:53:11;102017.47;;;0.60;81.42
80186;BME280;69904;52.122;5.422;2023-12-07T00:55:38;102025.75;;;0.56;81.21
80186;BME280;69904;52.122;5.422;2023-12-07T00:58:04;102024.38;;;0.50;81.39
80186;BME280;69904;52.122;5.422;2023-12-07T01:00:31;102030.00;;;0.46;81.12
80186;BME280;69904;52.122;5.422;2023-12-07T01:02:57;102021.09;;;0.47;81.49
80186;BME280;69904;52.122;5.422;2023-12-07T01:05:24;102024.47;;;0.49;81.41
80186;BME280;69904;52.122;5.422;2023-12-07T01:07:50;102019.06;;;0.50;81.52
80186;BME280;69904;52.122;5.422;2023-12-07T01:10:17;102017.34;;;0.49;81.47
80186;BME280;69904;52.122;5.422;2023-12-07T01:12:43;102018.22;;;0.50;81.47
80186;BME280;69904;52.122;5.422;2023-12-07T01:15:10;102023.66;;;0.48;81.29
80186;BME280;69904;52.122;5.422;2023-12-07T01:17:36;102022.03;;;0.46;81.25
80186;BME280;69904;52.122;5.422;2023-12-07T01:20:06;102030.94;;;0.45;81.28
80186;BME280;69904;52.122;5.422;2023-12-07T01:22:39;102026.81;;;0.40;81.39
80186;BME280;69904;52.122;5.422;2023-12-07T01:25:06;102033.91;;;0.40;81.27
80186;BME280;69904;52.122;5.422;2023-12-07T01:27:34;102029.66;;;0.37;81.33
80186;BME280;69904;52.122;5.422;2023-12-07T01:30:00;102036.66;;;0.38;81.36
80186;BME280;69904;52.122;5.422;2023-12-07T01:32:27;102036.56;;;0.40;81.36
80186;BME280;69904;52.122;5.422;2023-12-07T01:34:53;102032.97;;;0.41;81.58
80186;BME280;69904;52.122;5.422;2023-12-07T01:37:20;102038.19;;;0.43;81.66
80186;BME280;69904;52.122;5.422;2023-12-07T01:39:47;102039.13;;;0.41;81.73
80186;BME280;69904;52.122;5.422;2023-12-07T01:42:15;102031.34;;;0.38;81.48
80186;BME280;69904;52.122;5.422;2023-12-07T01:44:41;102034.22;;;0.35;81.54
80186;BME280;69904;52.122;5.422;2023-12-07T01:47:08;102040.59;;;0.33;81.60
80186;BME280;69904;52.122;5.422;2023-12-07T01:49:36;102042.59;;;0.29;81.56
80186;BME280;69904;52.122;5.422;2023-12-07T01:52:04;102043.47;;;0.30;81.65
80186;BME280;69904;52.122;5.422;2023-12-07T01:54:31;102041.56;;;0.32;81.59
80186;BME280;69904;52.122;5.422;2023-12-07T01:56:58;102040.72;;;0.31;81.67
80186;BME280;69904;52.122;5.422;2023-12-07T01:59:24;102040.72;;;0.31;81.71
80186;BME280;69904;52.122;5.422;2023-12-07T02:01:51;102046.75;;;0.33;81.73
80186;BME280;69904;52.122;5.422;2023-12-07T02:04:17;102043.25;;;0.33;81.78
80186;BME280;69904;52.122;5.422;2023-12-07T02:06:44;102035.91;;;0.24;81.75
80186;BME280;69904;52.122;5.422;2023-12-07T02:09:11;102050.13;;;0.23;81.89
80186;BME280;69904;52.122;5.422;2023-12-07T02:11:37;102032.28;;;0.25;81.99
80186;BME280;69904;52.122;5.422;2023-12-07T02:14:03;102036.66;;;0.26;82.06
80186;BME280;69904;52.122;5.422;2023-12-07T02:16:39;102034.94;;;0.25;82.06
80186;BME280;69904;52.122;5.422;2023-12-07T02:19:17;102036.00;;;0.22;81.90
80186;BME280;69904;52.122;5.422;2023-12-07T02:22:10;102036.13;;;0.21;82.04
80186;BME280;69904;52.122;5.422;2023-12-07T02:24:50;102039.16;;;0.15;81.96
80186;BME280;69904;52.122;5.422;2023-12-07T02:27:54;102041.91;;;0.13;82.01
80186;BME280;69904;52.122;5.422;2023-12-07T02:30:21;102041.06;;;0.13;81.81
80186;BME280;69904;52.122;5.422;2023-12-07T02:32:47;102042.00;;;0.12;82.07
80186;BME280;69904;52.122;5.422;2023-12-07T02:35:14;102039.47;;;0.10;82.07
80186;BME280;69904;52.122;5.422;2023-12-07T02:37:48;102029.81;;;0.09;81.90
80186;BME280;69904;52.122;5.422;2023-12-07T02:40:19;102043.81;;;0.11;82.01
80186;BME280;69904;52.122;5.422;2023-12-07T02:42:48;102044.78;;;0.10;82.00
80186;BME280;69904;52.122;5.422;2023-12-07T02:45:14;102045.50;;;0.12;82.10
80186;BME280;69904;52.122;5.422;2023-12-07T02:47:41;102035.75;;;0.13;81.88
80186;BME280;69904;52.122;5.422;2023-12-07T02:50:10;102033.94;;;0.13;82.15
80186;BME280;69904;52.122;5.422;2023-12-07T02:52:36;102034.16;;;0.10;82.26
80186;BME280;69904;52.122;5.422;2023-12-07T02:55:03;102027.25;;;0.08;82.19
80186;BME280;69904;52.122;5.422;2023-12-07T02:57:30;102024.81;;;0.05;82.43
80186;BME280;69904;52.122;5.422;2023-12-07T02:59:57;102025.53;;;0.07;82.29
80186;BME280;69904;52.122;5.422;2023-12-07T03:02:23;102034.66;;;0.03;82.15
80186;BME280;69904;52.122;5.422;2023-12-07T03:04:50;102031.53;;;-0.04;82.50
80186;BME280;69904;52.122;5.422;2023-12-07T03:07:16;102035.91;;;-0.03;82.54
80186;BME280;69904;52.122;5.422;2023-12-07T03:09:43;102039.72;;;-0.07;82.64
80186;BME280;69904;52.122;5.422;2023-12-07T03:12:09;102038.88;;;-0.08;82.72
80186;BME280;69904;52.122;5.422;2023-12-07T03:14:36;102036.13;;;-0.06;82.91
80186;BME280;69904;52.122;5.422;2023-12-07T03:17:02;102027.19;;;-0.05;83.03
80186;BME280;69904;52.122;5.422;2023-12-07T03:19:29;102033.47;;;-0.06;83.13
80186;BME280;69904;52.122;5.422;2023-12-07T03:21:55;102039.50;;;-0.04;83.16
80186;BME280;69904;52.122;5.422;2023-12-07T03:24:22;102043.09;;;-0.05;83.24
80186;BME280;69904;52.122;5.422;2023-12-07T03:26:48;102043.09;;;-0.05;83.18
80186;BME280;69904;52.122;5.422;2023-12-07T03:29:15;102051.91;;;-0.05;83.31
80186;BME280;69904;52.122;5.422;2023-12-07T03:31:42;102049.19;;;-0.03;83.20
80186;BME280;69904;52.122;5.422;2023-12-07T03:34:08;102044.94;;;-0.06;83.04
80186;BME280;69904;52.122;5.422;2023-12-07T03:36:35;102047.59;;;-0.06;83.19
80186;BME280;69904;52.122;5.422;2023-12-07T03:39:01;102052.13;;;-0.08;83.23
80186;BME280;69904;52.122;5.422;2023-12-07T03:41:29;102046.91;;;-0.09;83.22
80186;BME280;69904;52.122;5.422;2023-12-07T03:43:55;102051.59;;;-0.13;83.13
80186;BME280;69904;52.122;5.422;2023-12-07T03:46:22;102051.66;;;-0.14;83.16
80186;BME280;69904;52.122;5.422;2023-12-07T03:48:48;102051.66;;;-0.14;83.18
80186;BME280;69904;52.122;5.422;2023-12-07T03:51:16;102046.56;;;-0.17;83.25
80186;BME280;69904;52.122;5.422;2023-12-07T03:53:43;102051.03;;;-0.18;83.21
80186;BME280;69904;52.122;5.422;2023-12-07T03:56:09;102049.22;;;-0.17;83.28
80186;BME280;69904;52.122;5.422;2023-12-07T03:58:36;102055.47;;;-0.18;83.32
80186;BME280;69904;52.122;5.422;2023-12-07T04:01:03;102062.78;;;-0.22;83.36
80186;BME280;69904;52.122;5.422;2023-12-07T04:03:30;102048.75;;;-0.24;83.47
80186;BME280;69904;52.122;5.422;2023-12-07T04:05:56;102046.88;;;-0.22;83.66
80186;BME280;69904;52.122;5.422;2023-12-07T04:08:23;102052.91;;;-0.20;83.57
80186;BME280;69904;52.122;5.422;2023-12-07T04:10:49;102059.38;;;-0.24;83.60
80186;BME280;69904;52.122;5.422;2023-12-07T04:13:15;102047.28;;;-0.28;83.55
80186;BME280;69904;52.122;5.422;2023-12-07T04:15:42;102050.94;;;-0.30;83.44
80186;BME280;69904;52.122;5.422;2023-12-07T04:18:08;102052.03;;;-0.33;83.53
80186;BME280;69904;52.122;5.422;2023-12-07T04:20:35;102041.50;;;-0.34;83.63
80186;BME280;69904;52.122;5.422;2023-12-07T04:23:04;102040.56;;;-0.33;83.79
80186;BME280;69904;52.122;5.422;2023-12-07T04:25:31;102042.13;;;-0.31;83.76
80186;BME280;69904;52.122;5.422;2023-12-07T04:27:58;102054.47;;;-0.30;83.79
80186;BME280;69904;52.122;5.422;2023-12-07T04:30:25;102055.31;;;-0.29;83.76
80186;BME280;69904;52.122;5.422;2023-12-07T04:32:51;102050.09;;;-0.31;83.68
80186;BME280;69904;52.122;5.422;2023-12-07T04:35:18;102060.28;;;-0.37;83.55
80186;BME280;69904;52.122;5.422;2023-12-07T04:37:44;102049.75;;;-0.39;83.66
80186;BME280;69904;52.122;5.422;2023-12-07T04:40:11;102044.63;;;-0.42;83.42
80186;BME280;69904;52.122;5.422;2023-12-07T04:42:39;102047.47;;;-0.45;83.36
80186;BME280;69904;52.122;5.422;2023-12-07T04:45:05;102055.63;;;-0.48;83.38
80186;BME280;69904;52.122;5.422;2023-12-07T04:47:32;102047.22;;;-0.55;83.42
80186;BME280;69904;52.122;5.422;2023-12-07T04:49:59;102045.50;;;-0.56;83.61
80186;BME280;69904;52.122;5.422;2023-12-07T04:52:26;102055.19;;;-0.55;83.61
80186;BME280;69904;52.122;5.422;2023-12-07T04:54:53;102052.31;;;-0.52;83.81
80186;BME280;69904;52.122;5.422;2023-12-07T04:57:19;102046.84;;;-0.49;83.91
80186;BME280;69904;52.122;5.422;2023-12-07T04:59:46;102050.44;;;-0.50;84.01
80186;BME280;69904;52.122;5.422;2023-12-07T05:02:14;102045.00;;;-0.48;84.12
80186;BME280;69904;52.122;5.422;2023-12-07T05:04:41;102038.03;;;-0.49;84.40
80186;BME280;69904;52.122;5.422;2023-12-07T05:07:07;102037.91;;;-0.48;84.61
80186;BME280;69904;52.122;5.422;2023-12-07T05:09:34;102043.88;;;-0.44;84.76
80186;BME280;69904;52.122;5.422;2023-12-07T05:12:01;102041.13;;;-0.43;84.92
80186;BME280;69904;52.122;5.422;2023-12-07T05:14:27;102033.84;;;-0.39;85.07
80186;BME280;69904;52.122;5.422;2023-12-07T05:16:54;102033.75;;;-0.37;85.20
80186;BME280;69904;52.122;5.422;2023-12-07T05:19:25;102031.84;;;-0.35;85.31
80186;BME280;69904;52.122;5.422;2023-12-07T05:21:52;102035.44;;;-0.36;85.38
80186;BME280;69904;52.122;5.422;2023-12-07T05:24:18;102035.25;;;-0.33;85.57
80186;BME280;69904;52.122;5.422;2023-12-07T05:26:45;102036.97;;;-0.32;85.58
80186;BME280;69904;52.122;5.422;2023-12-07T05:29:15;102032.38;;;-0.30;85.69
80186;BME280;69904;52.122;5.422;2023-12-07T05:31:41;102028.16;;;-0.33;85.93
80186;BME280;69904;52.122;5.422;2023-12-07T05:34:08;102020.19;;;-0.33;85.96
80186;BME280;69904;52.122;5.422;2023-12-07T05:36:35;102032.69;;;-0.35;86.02
80186;BME280;69904;52.122;5.422;2023-12-07T05:39:01;102029.94;;;-0.33;86.11
80186;BME280;69904;52.122;5.422;2023-12-07T05:41:28;102032.38;;;-0.30;86.23
80186;BME280;69904;52.122;5.422;2023-12-07T05:43:54;102020.94;;;-0.31;86.49
80186;BME280;69904;52.122;5.422;2023-12-07T05:46:21;102027.84;;;-0.28;86.52
80186;BME280;69904;52.122;5.422;2023-12-07T05:48:47;102034.84;;;-0.27;86.50
80186;BME280;69904;52.122;5.422;2023-12-07T05:51:16;102022.94;;;-0.34;86.66
80186;BME280;69904;52.122;5.422;2023-12-07T05:53:44;102026.22;;;-0.31;86.93
80186;BME280;69904;52.122;5.422;2023-12-07T05:56:10;102029.44;;;-0.26;87.00
80186;BME280;69904;52.122;5.422;2023-12-07T05:58:38;102027.34;;;-0.21;87.31
80186;BME280;69904;52.122;5.422;2023-12-07T06:01:04;102026.38;;;-0.20;87.45
80186;BME280;69904;52.122;5.422;2023-12-07T06:03:31;102026.09;;;-0.15;87.54
80186;BME280;69904;52.122;5.422;2023-12-07T06:05:58;102022.31;;;-0.11;87.70
80186;BME280;69904;52.122;5.422;2023-12-07T06:08:25;102021.34;;;-0.10;88.05
80186;BME280;69904;52.122;5.422;2023-12-07T06:10:52;102031.75;;;-0.07;88.09
80186;BME280;69904;52.122;5.422;2023-12-07T06:13:18;102029.41;;;-0.12;88.29
80186;BME280;69904;52.122;5.422;2023-12-07T06:15:45;102029.72;;;-0.16;88.58
80186;BME280;69904;52.122;5.422;2023-12-07T06:18:11;102037.22;;;-0.23;88.87
80186;BME280;69904;52.122;5.422;2023-12-07T06:20:38;102050.00;;;-0.29;89.23
80186;BME280;69904;52.122;5.422;2023-12-07T06:23:04;102044.91;;;-0.32;89.54
80186;BME280;69904;52.122;5.422;2023-12-07T06:25:31;102036.50;;;-0.39;89.88
80186;BME280;69904;52.122;5.422;2023-12-07T06:27:57;102048.34;;;-0.45;90.13
80186;BME280;69904;52.122;5.422;2023-12-07T06:30:24;102048.44;;;-0.46;90.27
80186;BME280;69904;52.122;5.422;2023-12-07T06:32:51;102050.03;;;-0.44;90.56
80186;BME280;69904;52.122;5.422;2023-12-07T06:35:17;102048.97;;;-0.41;90.65
80186;BME280;69904;52.122;5.422;2023-12-07T06:37:44;102050.22;;;-0.32;90.85
80186;BME280;69904;52.122;5.422;2023-12-07T06:40:11;102055.09;;;-0.26;90.64
80186;BME280;69904;52.122;5.422;2023-12-07T06:42:38;102055.66;;;-0.21;90.75
80186;BME280;69904;52.122;5.422;2023-12-07T06:45:06;102056.63;;;-0.22;90.79
80186;BME280;69904;52.122;5.422;2023-12-07T06:47:37;102049.53;;;-0.22;90.85
80186;BME280;69904;52.122;5.422;2023-12-07T06:50:05;102049.25;;;-0.31;90.90
80186;BME280;69904;52.122;5.422;2023-12-07T06:52:34;102052.19;;;-0.36;90.89
80186;BME280;69904;52.122;5.422;2023-12-07T06:55:01;102055.44;;;-0.45;90.75
80186;BME280;69904;52.122;5.422;2023-12-07T06:57:28;102053.56;;;-0.43;91.34
80186;BME280;69904;52.122;5.422;2023-12-07T06:59:54;102058.84;;;-0.57;91.53
80186;BME280;69904;52.122;5.422;2023-12-07T07:02:21;102048.63;;;-0.63;91.69
80186;BME280;69904;52.122;5.422;2023-12-07T07:04:47;102061.44;;;-0.70;91.90
80186;BME280;69904;52.122;5.422;2023-12-07T07:07:15;102052.72;;;-0.72;92.03
80186;BME280;69904;52.122;5.422;2023-12-07T07:09:42;102046.66;;;-0.74;92.11
80186;BME280;69904;52.122;5.422;2023-12-07T07:12:08;102043.72;;;-0.69;92.27
80186;BME280;69904;52.122;5.422;2023-12-07T07:14:35;102040.63;;;-0.76;92.18
80186;BME280;69904;52.122;5.422;2023-12-07T07:17:04;102048.84;;;-0.66;92.30
80186;BME280;69904;52.122;5.422;2023-12-07T07:19:31;102046.75;;;-0.61;92.28
80186;BME280;69904;52.122;5.422;2023-12-07T07:21:57;102057.25;;;-0.60;92.64
80186;BME280;69904;52.122;5.422;2023-12-07T07:24:24;102054.69;;;-0.61;92.54
80186;BME280;69904;52.122;5.422;2023-12-07T07:26:51;102054.91;;;-0.64;92.47
80186;BME280;69904;52.122;5.422;2023-12-07T07:29:17;102047.69;;;-0.62;92.62
80186;BME280;69904;52.122;5.422;2023-12-07T07:31:44;102056.19;;;-0.57;92.62
80186;BME280;69904;52.122;5.422;2023-12-07T07:34:10;102059.41;;;-0.52;92.77
80186;BME280;69904;52.122;5.422;2023-12-07T07:36:37;102063.22;;;-0.56;92.43
80186;BME280;69904;52.122;5.422;2023-12-07T07:39:03;102072.59;;;-0.51;92.75
80186;BME280;69904;52.122;5.422;2023-12-07T07:41:35;102065.28;;;-0.47;92.76
80186;BME280;69904;52.122;5.422;2023-12-07T07:44:01;102067.00;;;-0.46;92.81
80186;BME280;69904;52.122;5.422;2023-12-07T07:46:30;102065.66;;;-0.53;92.58
80186;BME280;69904;52.122;5.422;2023-12-07T07:48:57;102057.56;;;-0.64;92.61
80186;BME280;69904;52.122;5.422;2023-12-07T07:51:23;102062.00;;;-0.65;92.74
80186;BME280;69904;52.122;5.422;2023-12-07T07:53:50;102060.75;;;-0.73;92.70
80186;BME280;69904;52.122;5.422;2023-12-07T07:56:16;102060.66;;;-0.72;92.80
80186;BME280;69904;52.122;5.422;2023-12-07T07:58:43;102063.69;;;-0.64;92.88
80186;BME280;69904;52.122;5.422;2023-12-07T08:01:09;102065.38;;;-0.63;92.75
80186;BME280;69904;52.122;5.422;2023-12-07T08:03:38;102062.56;;;-0.74;92.91
80186;BME280;69904;52.122;5.422;2023-12-07T08:06:06;102062.38;;;-0.71;92.92
80186;BME280;69904;52.122;5.422;2023-12-07T08:08:33;102067.19;;;-0.63;92.75
80186;BME280;69904;52.122;5.422;2023-12-07T08:10:59;102067.50;;;-0.54;92.73
80186;BME280;69904;52.122;5.422;2023-12-07T08:13:27;102059.53;;;-0.54;92.88
80186;BME280;69904;52.122;5.422;2023-12-07T08:15:54;102066.34;;;-0.50;92.75
80186;BME280;69904;52.122;5.422;2023-12-07T08:18:24;102057.25;;;-0.60;92.61
80186;BME280;69904;52.122;5.422;2023-12-07T08:20:50;102062.34;;;-0.57;92.55
80186;BME280;69904;52.122;5.422;2023-12-07T08:23:17;102064.06;;;-0.56;92.56
80186;BME280;69904;52.122;5.422;2023-12-07T08:25:43;102074.69;;;-0.56;92.48
80186;BME280;69904;52.122;5.422;2023-12-07T08:28:10;102069.19;;;-0.67;92.51
80186;BME280;69904;52.122;5.422;2023-12-07T08:30:36;102062.00;;;-0.65;92.61
80186;BME280;69904;52.122;5.422;2023-12-07T08:33:03;102056.03;;;-0.54;92.71
80186;BME280;69904;52.122;5.422;2023-12-07T08:35:30;102062.44;;;-0.58;92.78
80186;BME280;69904;52.122;5.422;2023-12-07T08:37:56;102058.69;;;-0.54;92.76
80186;BME280;69904;52.122;5.422;2023-12-07T08:40:23;102058.38;;;-0.50;92.81
80186;BME280;69904;52.122;5.422;2023-12-07T08:42:49;102064.16;;;-0.43;92.91
80186;BME280;69904;52.122;5.422;2023-12-07T08:45:18;102057.16;;;-0.44;92.80
80186;BME280;69904;52.122;5.422;2023-12-07T08:47:44;102061.03;;;-0.50;92.90
80186;BME280;69904;52.122;5.422;2023-12-07T08:50:11;102056.75;;;-0.52;92.73
80186;BME280;69904;52.122;5.422;2023-12-07T08:52:38;102058.69;;;-0.54;92.88
80186;BME280;69904;52.122;5.422;2023-12-07T08:55:13;102060.44;;;-0.40;92.92
80186;BME280;69904;52.122;5.422;2023-12-07T08:57:42;102059.41;;;-0.38;92.86
80186;BME280;69904;52.122;5.422;2023-12-07T09:00:09;102062.63;;;-0.33;92.95
80186;BME280;69904;52.122;5.422;2023-12-07T09:02:35;102053.53;;;-0.29;92.85
80186;BME280;69904;52.122;5.422;2023-12-07T09:05:13;102049.16;;;-0.30;92.87
80186;BME280;69904;52.122;5.422;2023-12-07T09:07:39;102050.47;;;-0.23;92.97
80186;BME280;69904;52.122;5.422;2023-12-07T09:10:07;102052.19;;;-0.22;92.95
80186;BME280;69904;52.122;5.422;2023-12-07T09:12:35;102050.25;;;-0.20;92.91
80186;BME280;69904;52.122;5.422;2023-12-07T09:15:06;102044.56;;;-0.14;92.79
80186;BME280;69904;52.122;5.422;2023-12-07T09:17:38;102040.31;;;-0.16;92.86
80186;BME280;69904;52.122;5.422;2023-12-07T09:20:09;102034.91;;;-0.15;92.90
80186;BME280;69904;52.122;5.422;2023-12-07T09:22:45;102034.81;;;-0.13;92.91
80186;BME280;69904;52.122;5.422;2023-12-07T09:25:13;102039.56;;;-0.18;92.57
80186;BME280;69904;52.122;5.422;2023-12-07T09:27:39;102043.06;;;-0.18;92.88
80186;BME280;69904;52.122;5.422;2023-12-07T09:30:07;102033.75;;;-0.11;92.82
80186;BME280;69904;52.122;5.422;2023-12-07T09:32:38;102044.00;;;-0.19;92.77
80186;BME280;69904;52.122;5.422;2023-12-07T09:35:05;102037.31;;;-0.24;92.93
80186;BME280;69904;52.122;5.422;2023-12-07T09:37:34;102044.91;;;-0.32;92.76
80186;BME280;69904;52.122;5.422;2023-12-07T09:40:00;102047.56;;;-0.32;93.16
80186;BME280;69904;52.122;5.422;2023-12-07T09:42:27;102050.94;;;-0.30;93.27
80186;BME280;69904;52.122;5.422;2023-12-07T09:45:02;102048.69;;;-0.36;93.33
80186;BME280;69904;52.122;5.422;2023-12-07T09:47:30;102051.91;;;-0.31;93.40
80186;BME280;69904;52.122;5.422;2023-12-07T09:50:06;102050.09;;;-0.31;93.49
80186;BME280;69904;52.122;5.422;2023-12-07T09:52:33;102048.31;;;-0.30;93.46
80186;BME280;69904;52.122;5.422;2023-12-07T09:55:02;102046.03;;;-0.22;93.56
80186;BME280;69904;52.122;5.422;2023-12-07T09:57:28;102056.63;;;-0.22;93.31
80186;BME280;69904;52.122;5.422;2023-12-07T09:59:57;102047.91;;;-0.24;93.38
80186;BME280;69904;52.122;5.422;2023-12-07T10:02:24;102041.38;;;-0.19;93.50
80186;BME280;69904;52.122;5.422;2023-12-07T10:05:09;102039.75;;;-0.21;93.45
80186;BME280;69904;52.122;5.422;2023-12-07T10:07:40;102031.16;;;-0.25;93.51
80186;BME280;69904;52.122;5.422;2023-12-07T10:10:08;102036.66;;;-0.28;93.56
80186;BME280;69904;52.122;5.422;2023-12-07T10:12:45;102016.94;;;-0.24;93.60
80186;BME280;69904;52.122;5.422;2023-12-07T10:15:16;102009.19;;;-0.27;93.55
80186;BME280;69904;52.122;5.422;2023-12-07T10:17:57;102016.94;;;-0.24;93.65
80186;BME280;69904;52.122;5.422;2023-12-07T10:20:26;102005.16;;;-0.20;93.79
80186;BME280;69904;52.122;5.422;2023-12-07T10:23:09;102003.72;;;-0.11;93.73
80186;BME280;69904;52.122;5.422;2023-12-07T10:25:38;101988.25;;;-0.05;93.73
80186;BME280;69904;52.122;5.422;2023-12-07T10:28:05;101985.88;;;-0.09;93.58
80186;BME280;69904;52.122;5.422;2023-12-07T10:30:37;101989.06;;;-0.17;93.67
80186;BME280;69904;52.122;5.422;2023-12-07T10:33:08;101987.34;;;-0.18;93.58
80186;BME280;69904;52.122;5.422;2023-12-07T10:35:41;101981.84;;;-0.15;93.78
80186;BME280;69904;52.122;5.422;2023-12-07T10:38:09;101978.69;;;-0.07;93.89
80186;BME280;69904;52.122;5.422;2023-12-07T10:40:36;101979.44;;;-0.05;93.97
80186;BME280;69904;52.122;5.422;2023-12-07T10:43:07;101992.41;;;-0.01;93.87
80186;BME280;69904;52.122;5.422;2023-12-07T10:45:35;101989.31;;;-0.07;93.71
80186;BME280;69904;52.122;5.422;2023-12-07T10:48:08;101981.66;;;-0.12;93.76
80186;BME280;69904;52.122;5.422;2023-12-07T10:50:37;101978.03;;;-0.11;93.83
80186;BME280;69904;52.122;5.422;2023-12-07T10:53:10;101961.06;;;-0.08;93.81
80186;BME280;69904;52.122;5.422;2023-12-07T10:55:42;101957.91;;;-0.01;93.88
80186;BME280;69904;52.122;5.422;2023-12-07T10:58:13;101957.59;;;0.04;93.80
80186;BME280;69904;52.122;5.422;2023-12-07T11:00:42;101962.91;;;0.04;93.83
80186;BME280;69904;52.122;5.422;2023-12-07T11:03:16;101951.97;;;0.09;93.96
80186;BME280;69904;52.122;5.422;2023-12-07T11:05:44;101953.38;;;0.14;93.94
80186;BME280;69904;52.122;5.422;2023-12-07T11:08:23;101947.97;;;0.16;93.84
80186;BME280;69904;52.122;5.422;2023-12-07T11:11:14;101951.97;;;0.09;93.85
80186;BME280;69904;52.122;5.422;2023-12-07T11:13:53;101934.56;;;0.17;93.80
80186;BME280;69904;52.122;5.422;2023-12-07T11:16:36;101931.19;;;0.28;93.80
80186;BME280;69904;52.122;5.422;2023-12-07T11:19:04;101926.63;;;0.30;93.87
80186;BME280;69904;52.122;5.422;2023-12-07T11:21:38;101920.91;;;0.36;93.77
80186;BME280;69904;52.122;5.422;2023-12-07T11:24:05;101922.41;;;0.40;93.78
80186;BME280;69904;52.122;5.422;2023-12-07T11:26:32;101915.81;;;0.46;94.03
80186;BME280;69904;52.122;5.422;2023-12-07T11:28:59;101912.22;;;0.47;93.76
80186;BME280;69904;52.122;5.422;2023-12-07T11:31:25;101903.28;;;0.48;93.49
80186;BME280;69904;52.122;5.422;2023-12-07T11:33:53;101906.03;;;0.46;93.38
80186;BME280;69904;52.122;5.422;2023-12-07T11:36:19;101900.84;;;0.45;93.38
80186;BME280;69904;52.122;5.422;2023-12-07T11:41:44;101890.22;;;0.45;93.31
80186;BME280;69904;52.122;5.422;2023-12-07T11:44:11;101885.13;;;0.41;93.48
80186;BME280;69904;52.122;5.422;2023-12-07T11:46:38;101875.75;;;0.49;93.87
80186;BME280;69904;52.122;5.422;2023-12-07T11:49:05;101879.91;;;0.53;93.49
80186;BME280;69904;52.122;5.422;2023-12-07T11:51:53;101871.72;;;0.56;93.44
80186;BME280;69904;52.122;5.422;2023-12-07T11:54:22;101876.94;;;0.57;93.74
80186;BME280;69904;52.122;5.422;2023-12-07T11:56:55;101882.34;;;0.56;93.66
80186;BME280;69904;52.122;5.422;2023-12-07T11:59:22;101880.63;;;0.55;93.58
80186;BME280;69904;52.122;5.422;2023-12-07T12:02:00;101865.88;;;0.51;93.64
80186;BME280;69904;52.122;5.422;2023-12-07T12:04:29;101863.84;;;0.54;93.78
80186;BME280;69904;52.122;5.422;2023-12-07T12:06:56;101867.16;;;0.58;93.75
80186;BME280;69904;52.122;5.422;2023-12-07T12:09:25;101855.78;;;0.56;93.92
80186;BME280;69904;52.122;5.422;2023-12-07T12:11:58;101858.00;;;0.62;93.80
80186;BME280;69904;52.122;5.422;2023-12-07T12:14:28;101853.31;;;0.65;93.99
80186;BME280;69904;52.122;5.422;2023-12-07T12:16:54;101834.72;;;0.65;94.04
80186;BME280;69904;52.122;5.422;2023-12-07T12:19:24;101827.06;;;0.73;93.99
80186;BME280;69904;52.122;5.422;2023-12-07T12:22:01;101826.13;;;0.74;94.24
80186;BME280;69904;52.122;5.422;2023-12-07T12:24:32;101828.88;;;0.73;94.13
80186;BME280;69904;52.122;5.422;2023-12-07T12:26:58;101827.78;;;0.75;94.09
80186;BME280;69904;52.122;5.422;2023-12-07T12:29:26;101827.47;;;0.80;94.12
80186;BME280;69904;52.122;5.422;2023-12-07T12:32:00;101822.78;;;0.83;94.23
80186;BME280;69904;52.122;5.422;2023-12-07T12:34:28;101814.59;;;0.87;94.14
80186;BME280;69904;52.122;5.422;2023-12-07T12:36:58;101816.09;;;0.91;94.25
80186;BME280;69904;52.122;5.422;2023-12-07T12:39:28;101812.34;;;0.93;94.18
80186;BME280;69904;52.122;5.422;2023-12-07T12:42:02;101804.25;;;0.95;94.40
80186;BME280;69904;52.122;5.422;2023-12-07T12:44:30;101805.22;;;0.94;94.27
80186;BME280;69904;52.122;5.422;2023-12-07T12:47:07;101800.00;;;0.92;94.23
80186;BME280;69904;52.122;5.422;2023-12-07T12:49:37;101787.13;;;0.99;94.29
80186;BME280;69904;52.122;5.422;2023-12-07T12:52:04;101785.81;;;1.04;94.34
80186;BME280;69904;52.122;5.422;2023-12-07T12:54:31;101778.25;;;1.11;94.14
80186;BME280;69904;52.122;5.422;2023-12-07T12:57:00;101766.53;;;1.13;94.27
80186;BME280;69904;52.122;5.422;2023-12-07T12:59:27;101767.38;;;1.14;94.64
80186;BME280;69904;52.122;5.422;2023-12-07T13:01:53;101758.69;;;1.12;94.33
80186;BME280;69904;52.122;5.422;2023-12-07T13:04:20;101752.28;;;1.14;94.21